Time;durP1;ratioP1;P1;durP2;ratioP2;P2;SDS_P1;SDS_P2;PMS_P1;PMS_P2;Temp;Humidity;BMP_temperature;BMP_pressure;BME280_temperature;BME280_humidity;BME280_pressure;Samples;Min_cycle;Max_cycle;Signal;HPM_P1;HPM_P2
2022/01/04 00:02:16;;;;;;;1.40;0.60;;;12.10;99.90;;;;;;5070650;28;20184;-79
2022/01/04 00:04:42;;;;;;;0.70;0.57;;;12.00;99.90;;;;;;5070630;28;20276;-78
2022/01/04 00:07:08;;;;;;;1.60;0.70;;;12.00;99.90;;;;;;5053979;28;20224;-78
2022/01/04 00:09:39;;;;;;;0.90;0.60;;;12.10;99.90;;;;;;5037074;28;20215;-76
2022/01/04 00:14:52;;;;;;;1.13;0.50;;;12.00;99.90;;;;;;5039941;28;20220;-78
2022/01/04 00:17:17;;;;;;;1.70;0.60;;;12.00;99.90;;;;;;5037123;28;20267;-78
2022/01/04 00:19:43;;;;;;;1.43;0.70;;;12.00;99.90;;;;;;5071731;28;20188;-78
2022/01/04 00:22:09;;;;;;;1.40;0.50;;;11.90;99.90;;;;;;5070275;28;20262;-77
2022/01/04 00:24:36;;;;;;;0.83;0.60;;;11.90;99.90;;;;;;5071067;28;20192;-77
2022/01/04 00:27:03;;;;;;;3.20;0.70;;;12.00;99.90;;;;;;5070139;28;20195;-77
2022/01/04 00:29:29;;;;;;;0.80;0.60;;;11.90;99.90;;;;;;5071331;28;20587;-76
2022/01/04 00:31:55;;;;;;;1.80;0.87;;;11.90;99.90;;;;;;5070420;28;20231;-77
2022/01/04 00:34:21;;;;;;;0.80;0.50;;;12.20;99.90;;;;;;5070034;28;20285;-77
2022/01/04 00:36:47;;;;;;;1.10;0.63;;;12.00;99.90;;;;;;5069722;28;20204;-77
2022/01/04 00:39:12;;;;;;;1.30;0.80;;;12.00;99.90;;;;;;5071432;28;20198;-75
2022/01/04 00:41:38;;;;;;;1.30;0.50;;;11.90;99.90;;;;;;5069810;28;20228;-79
2022/01/04 00:44:06;;;;;;;1.17;0.80;;;11.90;99.90;;;;;;5069988;28;20212;-76
2022/01/04 00:46:32;;;;;;;1.07;0.60;;;11.90;99.90;;;;;;5052259;28;20291;-77
2022/01/04 00:49:10;;;;;;;0.80;0.60;;;11.80;99.90;;;;;;5070094;28;20577;-76
2022/01/04 00:51:42;;;;;;;1.13;0.80;;;11.90;99.90;;;;;;5040052;28;20246;-76
2022/01/04 00:54:09;;;;;;;1.47;0.60;;;11.90;99.90;;;;;;5071193;28;20181;-77
2022/01/04 00:56:35;;;;;;;0.77;0.60;;;12.00;99.90;;;;;;5069548;28;20204;-79
2022/01/04 00:59:02;;;;;;;1.50;0.80;;;12.10;99.90;;;;;;5053450;28;20204;-75
2022/01/04 01:01:28;;;;;;;1.33;0.57;;;12.10;99.90;;;;;;5069689;28;20204;-77
2022/01/04 01:03:54;;;;;;;0.70;0.60;;;12.00;99.90;;;;;;5069265;28;20238;-77
2022/01/04 01:06:20;;;;;;;1.30;0.90;;;11.90;99.90;;;;;;5069421;28;20199;-76
2022/01/04 01:08:46;;;;;;;0.90;0.60;;;11.90;99.90;;;;;;5069598;28;20770;-77
2022/01/04 01:11:12;;;;;;;0.70;0.50;;;11.90;99.90;;;;;;5071117;28;20220;-77
2022/01/04 01:13:38;;;;;;;0.57;0.40;;;11.80;99.90;;;;;;5069913;28;20203;-76
2022/01/04 01:16:05;;;;;;;2.20;0.70;;;11.80;99.90;;;;;;5070472;28;20269;-77
2022/01/04 01:18:31;;;;;;;0.40;0.40;;;11.80;99.90;;;;;;5053025;28;20610;-77
2022/01/04 01:20:57;;;;;;;0.57;0.50;;;11.80;99.90;;;;;;5070707;28;20211;-78
2022/01/04 01:23:23;;;;;;;1.03;0.50;;;11.80;99.90;;;;;;5069524;28;20575;-76
2022/01/04 01:25:50;;;;;;;1.33;0.60;;;11.90;99.90;;;;;;5085771;28;20215;-76
2022/01/04 01:28:17;;;;;;;0.70;0.40;;;11.90;99.90;;;;;;5069641;28;20200;-76
2022/01/04 01:30:44;;;;;;;1.60;0.57;;;11.70;99.90;;;;;;5069070;28;20707;-77
2022/01/04 01:33:11;;;;;;;1.70;0.70;;;12.00;99.90;;;;;;5070894;28;20584;-78
2022/01/04 01:35:38;;;;;;;1.17;0.50;;;12.00;99.90;;;;;;5069129;28;20196;-77
2022/01/04 01:38:06;;;;;;;0.97;0.60;;;11.90;99.90;;;;;;5086106;28;21047;-78
2022/01/04 01:40:36;;;;;;;1.00;0.60;;;11.90;99.90;;;;;;5036015;28;20222;-76
2022/01/04 01:43:03;;;;;;;1.67;0.80;;;11.80;99.90;;;;;;5071061;28;20192;-79
2022/01/04 01:45:29;;;;;;;0.83;0.50;;;11.90;99.90;;;;;;5052620;28;20295;-78
2022/01/04 01:47:55;;;;;;;1.27;0.60;;;11.80;99.90;;;;;;5069353;28;20203;-77
2022/01/04 01:50:21;;;;;;;0.80;0.60;;;11.70;99.90;;;;;;5052650;28;20682;-78
2022/01/04 01:52:49;;;;;;;0.70;0.70;;;11.90;99.90;;;;;;5069074;28;20220;-78
2022/01/04 01:55:17;;;;;;;1.10;0.80;;;11.80;99.90;;;;;;5062630;28;20299;-77
2022/01/04 01:57:45;;;;;;;0.87;0.77;;;11.80;99.90;;;;;;5092181;28;20195;-79
2022/01/04 02:00:16;;;;;;;1.33;0.87;;;11.80;99.90;;;;;;5060698;28;20211;-77
2022/01/04 02:02:42;;;;;;;1.43;0.50;;;11.90;99.90;;;;;;5095070;28;20202;-78
2022/01/04 02:05:09;;;;;;;1.30;0.70;;;11.80;99.90;;;;;;5076291;28;20242;-76
2022/01/04 02:07:36;;;;;;;1.67;0.70;;;11.90;99.90;;;;;;5093278;28;20203;-77
2022/01/04 02:10:05;;;;;;;1.20;0.80;;;12.00;99.90;;;;;;5094637;28;20620;-78
2022/01/04 02:12:36;;;;;;;2.90;0.70;;;12.00;99.90;;;;;;5092973;28;20211;-78
2022/01/04 02:15:05;;;;;;;0.87;0.80;;;11.90;99.90;;;;;;5094341;28;20214;-78
2022/01/04 02:17:31;;;;;;;1.63;0.80;;;11.90;99.90;;;;;;5092931;28;20188;-77
2022/01/04 02:19:59;;;;;;;1.77;0.80;;;11.90;99.90;;;;;;5094280;28;20559;-75
2022/01/04 02:22:26;;;;;;;0.70;0.63;;;11.90;99.90;;;;;;5076213;28;20248;-78
2022/01/04 02:24:53;;;;;;;1.03;0.87;;;11.90;99.90;;;;;;5093887;28;20195;-78
2022/01/04 02:27:19;;;;;;;0.93;0.63;;;11.80;99.90;;;;;;5075718;28;20240;-76
2022/01/04 02:29:46;;;;;;;0.80;0.80;;;11.90;99.90;;;;;;5085048;28;20238;-78
2022/01/04 02:32:13;;;;;;;2.70;1.10;;;11.90;99.90;;;;;;5089819;28;20215;-77
2022/01/04 02:34:39;;;;;;;1.23;0.80;;;12.00;99.90;;;;;;5072553;28;20188;-76
2022/01/04 02:37:07;;;;;;;1.00;0.60;;;12.10;99.90;;;;;;5073784;28;20273;-75
2022/01/04 02:39:37;;;;;;;0.70;0.70;;;12.10;99.90;;;;;;5073562;28;20200;-78
2022/01/04 02:42:04;;;;;;;1.77;0.80;;;12.20;99.90;;;;;;5073623;28;20176;-77
2022/01/04 02:44:31;;;;;;;1.00;0.90;;;12.10;99.90;;;;;;5073289;28;20249;-76
2022/01/04 02:46:58;;;;;;;3.23;0.93;;;12.00;99.90;;;;;;5073416;28;20202;-76
2022/01/04 02:49:25;;;;;;;1.57;0.70;;;12.10;99.90;;;;;;5073734;28;20188;-76
2022/01/04 02:51:51;;;;;;;1.90;1.10;;;12.10;99.90;;;;;;5055413;28;20219;-76
2022/01/04 02:54:16;;;;;;;1.70;0.77;;;12.10;99.90;;;;;;5071905;28;20298;-75
2022/01/04 02:56:43;;;;;;;1.30;1.00;;;12.00;99.90;;;;;;5071968;28;20287;-76
2022/01/04 02:59:08;;;;;;;0.70;0.60;;;12.10;99.90;;;;;;5073653;28;20208;-77
2022/01/04 03:01:34;;;;;;;0.80;0.70;;;12.00;99.90;;;;;;5054353;28;20614;-77
2022/01/04 03:04:00;;;;;;;1.30;0.90;;;12.10;99.90;;;;;;5076350;28;20204;-76
2022/01/04 03:06:26;;;;;;;1.70;0.80;;;12.00;99.90;;;;;;5072116;28;20249;-75
2022/01/04 03:08:51;;;;;;;1.50;1.00;;;12.00;99.90;;;;;;5070444;28;20200;-76
2022/01/04 03:11:17;;;;;;;1.63;0.90;;;12.00;99.90;;;;;;5071551;28;20337;-75
2022/01/04 03:13:43;;;;;;;1.57;0.90;;;12.00;99.90;;;;;;5072806;28;20217;-76
2022/01/04 03:16:09;;;;;;;1.20;0.80;;;12.10;99.90;;;;;;5072310;28;20266;-77
2022/01/04 03:18:40;;;;;;;2.43;0.90;;;12.10;99.90;;;;;;5070651;28;20679;-77
2022/01/04 03:21:06;;;;;;;1.33;0.83;;;12.20;99.90;;;;;;5070688;28;20224;-76
2022/01/04 03:23:32;;;;;;;2.13;0.90;;;12.10;99.90;;;;;;5053180;28;20227;-76
2022/01/04 03:25:57;;;;;;;2.83;0.77;;;12.20;99.90;;;;;;5072682;28;20232;-78
2022/01/04 03:28:23;;;;;;;2.00;1.13;;;12.20;99.90;;;;;;5054787;28;20531;-76
2022/01/04 03:30:49;;;;;;;1.13;0.90;;;12.10;99.90;;;;;;5054087;28;20573;-76
2022/01/04 03:33:16;;;;;;;1.67;0.80;;;12.10;99.90;;;;;;5071240;28;20196;-76
2022/01/04 03:35:42;;;;;;;1.43;0.80;;;12.20;99.90;;;;;;5070970;28;20239;-78
2022/01/04 03:38:07;;;;;;;0.80;0.80;;;12.10;99.90;;;;;;5070704;28;20232;-76
2022/01/04 03:40:33;;;;;;;1.10;0.80;;;12.10;99.90;;;;;;5070565;28;20927;-75
2022/01/04 03:42:59;;;;;;;0.63;0.63;;;12.10;99.90;;;;;;5037531;28;20713;-75
2022/01/04 03:45:25;;;;;;;1.43;0.93;;;12.10;99.90;;;;;;5072382;28;20203;-76
2022/01/04 03:47:51;;;;;;;0.90;0.70;;;12.10;99.90;;;;;;5072196;28;20211;-77
2022/01/04 03:50:16;;;;;;;1.17;0.70;;;12.10;99.90;;;;;;5054125;28;20239;-76
2022/01/04 03:52:42;;;;;;;1.20;0.80;;;12.00;99.90;;;;;;5054211;28;20667;-76
2022/01/04 03:55:09;;;;;;;0.77;0.70;;;12.00;99.90;;;;;;5070429;28;20219;-76
2022/01/04 03:57:36;;;;;;;0.80;0.80;;;12.20;99.90;;;;;;5069355;28;20308;-75
2022/01/04 04:00:06;;;;;;;1.00;0.63;;;12.20;99.90;;;;;;5074582;28;20605;-78
2022/01/04 04:02:31;;;;;;;1.97;0.70;;;12.10;99.90;;;;;;5056873;28;20211;-76
2022/01/04 04:04:57;;;;;;;1.47;1.10;;;12.20;99.90;;;;;;5053916;28;20196;-76
2022/01/04 04:07:23;;;;;;;2.43;0.70;;;12.30;99.90;;;;;;5070488;28;20204;-76
2022/01/04 04:09:49;;;;;;;2.10;0.70;;;12.30;99.90;;;;;;5071340;28;20223;-76
2022/01/04 04:12:14;;;;;;;1.30;0.83;;;12.30;99.90;;;;;;5070539;28;20208;-76
2022/01/04 04:14:42;;;;;;;1.03;0.70;;;12.30;99.90;;;;;;5071479;28;20291;-75
2022/01/04 04:17:07;;;;;;;2.93;0.70;;;12.30;99.90;;;;;;5069503;28;20207;-75
2022/01/04 04:19:34;;;;;;;3.20;1.00;;;12.30;99.90;;;;;;5070154;28;20208;-75
2022/01/04 04:21:59;;;;;;;1.00;0.57;;;12.30;99.90;;;;;;5069806;28;20294;-77
2022/01/04 04:24:25;;;;;;;0.97;0.70;;;12.30;99.90;;;;;;5053582;28;20307;-77
2022/01/04 04:26:51;;;;;;;0.50;0.50;;;12.30;99.90;;;;;;5070150;28;20207;-76
2022/01/04 04:29:17;;;;;;;0.73;0.63;;;12.30;99.90;;;;;;5071672;28;20222;-79
2022/01/04 04:31:42;;;;;;;0.83;0.70;;;12.20;99.90;;;;;;5070464;28;20216;-79
2022/01/04 04:34:08;;;;;;;0.70;0.57;;;12.10;99.90;;;;;;5036655;28;20235;-75
2022/01/04 04:36:34;;;;;;;1.07;0.57;;;12.10;99.90;;;;;;5053116;28;20624;-78
2022/01/04 04:39:00;;;;;;;0.60;0.53;;;12.10;99.90;;;;;;5069871;28;20716;-78
2022/01/04 04:41:26;;;;;;;0.53;0.53;;;12.20;99.90;;;;;;5037108;28;20697;-79
2022/01/04 04:43:54;;;;;;;0.60;0.60;;;12.30;99.90;;;;;;5070003;28;20200;-76
2022/01/04 04:46:23;;;;;;;0.57;0.57;;;12.30;99.90;;;;;;5069868;28;20633;-78
2022/01/04 04:48:49;;;;;;;1.83;0.50;;;12.20;99.90;;;;;;5070809;28;20212;-76
2022/01/04 04:51:15;;;;;;;0.47;0.43;;;12.10;99.90;;;;;;5069125;28;20242;-78
2022/01/04 04:53:40;;;;;;;0.73;0.70;;;12.10;99.90;;;;;;5053121;28;20249;-76
2022/01/04 04:56:06;;;;;;;2.00;0.70;;;12.10;99.90;;;;;;5070796;28;20207;-76
2022/01/04 04:58:32;;;;;;;0.63;0.60;;;12.10;99.90;;;;;;5052977;28;20253;-76
2022/01/04 05:00:58;;;;;;;0.50;0.40;;;12.20;99.90;;;;;;5053060;28;20342;-76
2022/01/04 05:03:23;;;;;;;0.50;0.50;;;12.10;99.90;;;;;;5071003;28;20204;-76
2022/01/04 05:05:49;;;;;;;0.97;0.63;;;12.20;99.90;;;;;;5070557;28;20333;-76
2022/01/04 05:08:15;;;;;;;0.80;0.57;;;12.30;99.90;;;;;;5069819;28;20650;-76
2022/01/04 05:10:42;;;;;;;1.43;0.80;;;12.30;99.90;;;;;;5070538;28;20199;-77
2022/01/04 05:13:08;;;;;;;2.70;0.70;;;12.30;99.90;;;;;;5069701;28;20292;-75
2022/01/04 05:15:34;;;;;;;1.53;0.60;;;12.30;99.90;;;;;;5070391;28;20223;-76
2022/01/04 05:18:00;;;;;;;1.07;0.50;;;12.20;99.90;;;;;;5069242;28;20196;-76
2022/01/04 05:20:25;;;;;;;1.70;0.60;;;12.20;99.90;;;;;;5069692;28;20283;-75
2022/01/04 05:22:51;;;;;;;1.83;0.60;;;12.10;99.90;;;;;;5069698;28;20200;-76
2022/01/04 05:25:17;;;;;;;0.77;0.73;;;12.20;99.90;;;;;;5069333;28;20196;-76
2022/01/04 05:27:43;;;;;;;3.43;0.63;;;12.10;99.90;;;;;;5052672;28;20728;-74
2022/01/04 05:30:09;;;;;;;0.73;0.67;;;12.10;99.90;;;;;;5070167;28;20224;-76
2022/01/04 05:32:35;;;;;;;1.10;0.60;;;12.10;99.90;;;;;;5058759;28;20216;-78
2022/01/04 05:35:01;;;;;;;1.13;0.93;;;12.20;99.90;;;;;;5071823;28;20207;-76
2022/01/04 05:37:27;;;;;;;1.10;0.70;;;12.30;99.90;;;;;;5071451;28;20262;-77
2022/01/04 05:39:52;;;;;;;1.50;0.90;;;12.40;99.90;;;;;;5071859;28;20180;-76
2022/01/04 05:42:18;;;;;;;0.53;0.53;;;12.30;99.90;;;;;;5089141;28;20768;-76
2022/01/04 05:44:44;;;;;;;0.67;0.67;;;12.10;99.90;;;;;;5073898;28;20314;-77
2022/01/04 05:47:10;;;;;;;0.60;0.50;;;12.10;99.90;;;;;;5072868;28;20265;-76
2022/01/04 05:49:37;;;;;;;1.57;0.63;;;12.00;99.90;;;;;;5074030;28;20202;-76
2022/01/04 05:52:04;;;;;;;1.13;0.60;;;12.00;99.90;;;;;;5088639;28;20718;-76
2022/01/04 05:54:30;;;;;;;1.43;0.70;;;12.00;99.90;;;;;;5060920;28;20299;-77
2022/01/04 05:56:56;;;;;;;0.60;0.50;;;12.00;99.90;;;;;;5054939;28;20215;-76
2022/01/04 05:59:22;;;;;;;1.20;0.70;;;12.10;99.90;;;;;;5071326;28;20296;-76
2022/01/04 06:01:48;;;;;;;1.13;0.67;;;12.00;99.90;;;;;;5053697;28;20201;-75
2022/01/04 06:04:14;;;;;;;1.90;0.83;;;12.00;99.90;;;;;;5069028;28;20654;-76
2022/01/04 06:06:41;;;;;;;2.03;0.80;;;12.10;99.90;;;;;;5072297;28;20204;-76
2022/01/04 06:09:15;;;;;;;1.03;0.73;;;12.30;99.90;;;;;;5071508;28;20211;-76
2022/01/04 06:16:51;;;;;;;0.90;0.60;;;12.20;99.90;;;;;;5072787;28;20200;-78
2022/01/04 06:19:17;;;;;;;1.80;0.70;;;12.20;99.90;;;;;;5073076;28;20219;-78
2022/01/04 06:21:42;;;;;;;1.20;0.63;;;12.30;99.90;;;;;;5072403;28;20244;-78
2022/01/04 06:24:08;;;;;;;0.70;0.70;;;12.20;99.90;;;;;;5052873;28;20211;-78
2022/01/04 06:26:34;;;;;;;0.90;0.70;;;12.20;99.90;;;;;;5071485;28;20216;-76
2022/01/04 06:29:01;;;;;;;1.77;0.50;;;12.10;99.90;;;;;;5072327;28;20230;-75
2022/01/04 06:31:27;;;;;;;1.40;0.70;;;12.00;99.90;;;;;;5072714;28;20223;-76
2022/01/04 06:33:54;;;;;;;3.07;0.83;;;12.00;99.90;;;;;;5070985;28;20724;-77
2022/01/04 06:36:20;;;;;;;1.80;0.77;;;12.10;99.90;;;;;;5071715;28;20204;-77
2022/01/04 06:38:46;;;;;;;1.47;0.63;;;12.30;99.90;;;;;;5087973;28;20291;-77
2022/01/04 06:41:11;;;;;;;2.17;0.70;;;12.30;99.90;;;;;;5072441;28;20211;-76
2022/01/04 06:43:37;;;;;;;1.47;0.70;;;12.10;99.90;;;;;;5086810;28;20231;-77
2022/01/04 06:46:03;;;;;;;0.53;0.50;;;12.20;99.90;;;;;;5071772;28;20212;-77
2022/01/04 06:48:29;;;;;;;0.93;0.60;;;12.30;99.90;;;;;;5068680;28;20205;-78
2022/01/04 06:50:55;;;;;;;0.67;0.60;;;12.20;99.90;;;;;;5070621;28;20220;-78
2022/01/04 06:53:21;;;;;;;0.77;0.57;;;12.30;99.90;;;;;;5087623;28;20198;-76
2022/01/04 06:55:50;;;;;;;1.87;0.70;;;12.50;99.90;;;;;;5071928;28;20258;-76
2022/01/04 06:58:19;;;;;;;0.50;0.50;;;12.40;99.90;;;;;;5082573;28;20213;-77
2022/01/04 07:00:45;;;;;;;0.90;0.60;;;12.30;99.90;;;;;;5087480;28;20202;-77
2022/01/04 07:03:10;;;;;;;0.83;0.70;;;12.20;99.90;;;;;;5059617;28;20184;-76
2022/01/04 07:05:36;;;;;;;2.00;0.60;;;12.20;99.90;;;;;;5070665;28;20200;-74
2022/01/04 07:08:03;;;;;;;1.43;0.50;;;12.20;99.90;;;;;;5049514;28;20666;-76
2022/01/04 07:10:29;;;;;;;0.67;0.60;;;12.20;99.90;;;;;;5054219;28;20243;-75
2022/01/04 07:12:55;;;;;;;1.23;0.80;;;12.20;99.90;;;;;;5072267;28;20671;-78
2022/01/04 07:15:20;;;;;;;0.87;0.50;;;12.20;99.90;;;;;;5050711;28;20687;-79
2022/01/04 07:17:46;;;;;;;3.30;0.70;;;12.20;99.90;;;;;;5072644;28;20563;-79
2022/01/04 07:20:12;;;;;;;1.17;0.70;;;12.10;99.90;;;;;;5037570;28;20212;-80
2022/01/04 07:22:38;;;;;;;1.00;0.67;;;12.20;99.90;;;;;;5070872;28;20663;-79
2022/01/04 07:25:05;;;;;;;1.53;0.70;;;12.20;99.90;;;;;;5037081;28;20211;-78
2022/01/04 07:27:32;;;;;;;2.53;1.53;;;12.30;99.90;;;;;;5069980;28;20609;-75
2022/01/04 07:29:57;;;;;;;2.37;1.53;;;12.20;99.90;;;;;;5077886;28;20208;-78
2022/01/04 07:32:23;;;;;;;1.67;0.80;;;12.20;99.90;;;;;;5071490;28;20192;-76
2022/01/04 07:34:49;;;;;;;1.20;0.60;;;12.10;99.90;;;;;;5070999;28;20201;-79
2022/01/04 07:37:15;;;;;;;1.10;0.60;;;12.20;99.90;;;;;;5071167;28;20196;-79
2022/01/04 07:39:41;;;;;;;0.80;0.60;;;12.30;99.90;;;;;;5070812;28;20224;-77
2022/01/04 07:42:07;;;;;;;1.40;0.70;;;12.40;99.90;;;;;;5072575;28;20200;-76
2022/01/04 07:44:33;;;;;;;0.67;0.60;;;12.30;99.90;;;;;;5070300;28;20212;-76
2022/01/04 07:46:59;;;;;;;0.60;0.50;;;12.20;99.90;;;;;;5071311;28;20223;-76
2022/01/04 07:49:25;;;;;;;1.20;0.90;;;12.30;99.90;;;;;;5036168;28;20208;-75
2022/01/04 07:51:52;;;;;;;0.83;0.60;;;12.20;99.90;;;;;;5050924;28;20299;-76
2022/01/04 07:54:18;;;;;;;1.43;0.80;;;12.40;99.90;;;;;;5061410;28;20204;-78
2022/01/04 07:56:44;;;;;;;1.90;0.50;;;12.40;99.90;;;;;;5069186;28;20258;-76
2022/01/04 07:59:10;;;;;;;1.53;1.00;;;12.20;99.90;;;;;;5072572;28;20573;-77
2022/01/04 08:01:36;;;;;;;1.00;0.90;;;12.20;99.90;;;;;;5068279;28;20196;-78
2022/01/04 08:04:04;;;;;;;0.97;0.70;;;12.40;99.90;;;;;;5087597;28;20688;-78
2022/01/04 08:06:30;;;;;;;0.77;0.40;;;12.50;99.90;;;;;;5054047;28;20223;-78
2022/01/04 08:08:56;;;;;;;0.70;0.63;;;12.50;99.90;;;;;;5053930;28;20206;-75
2022/01/04 08:11:22;;;;;;;0.70;0.60;;;12.60;99.90;;;;;;5072014;28;20212;-76
2022/01/04 08:13:48;;;;;;;0.87;0.50;;;12.60;99.90;;;;;;5070413;28;20232;-76
2022/01/04 08:16:15;;;;;;;0.50;0.50;;;12.70;99.90;;;;;;5052928;28;20694;-78
2022/01/04 08:18:44;;;;;;;5.93;3.90;;;12.70;99.90;;;;;;5053378;28;20202;-78
2022/01/04 08:21:10;;;;;;;1.23;1.00;;;12.80;99.90;;;;;;5053309;28;20567;-75
2022/01/04 08:23:37;;;;;;;0.60;0.60;;;12.80;99.90;;;;;;5053561;28;20200;-77
2022/01/04 08:26:04;;;;;;;1.70;0.60;;;12.80;99.90;;;;;;5069838;28;20698;-75
2022/01/04 08:28:30;;;;;;;1.10;0.70;;;12.80;99.90;;;;;;5069401;28;20540;-76
2022/01/04 08:30:56;;;;;;;1.93;0.60;;;12.80;99.90;;;;;;5052441;28;20215;-81
2022/01/04 08:33:21;;;;;;;1.13;0.60;;;12.90;99.90;;;;;;5068911;28;20199;-76
2022/01/04 08:35:50;;;;;;;0.83;0.50;;;13.00;99.90;;;;;;5068150;28;20262;-76
2022/01/04 08:38:16;;;;;;;1.57;0.60;;;12.90;99.90;;;;;;5053483;28;20224;-79
2022/01/04 08:40:42;;;;;;;1.50;0.67;;;13.00;99.90;;;;;;5069801;28;20227;-76
2022/01/04 08:43:08;;;;;;;0.83;0.53;;;13.00;99.90;;;;;;5071259;28;20238;-78
2022/01/04 08:45:34;;;;;;;4.77;3.07;;;13.10;99.90;;;;;;5052534;28;20294;-75
2022/01/04 08:48:00;;;;;;;1.33;0.70;;;13.10;99.90;;;;;;5068975;28;20279;-78
2022/01/04 08:50:27;;;;;;;1.27;0.60;;;13.10;99.90;;;;;;5069131;28;20220;-75
2022/01/04 08:52:55;;;;;;;2.03;0.60;;;13.00;99.90;;;;;;5068953;28;20281;-75
2022/01/04 08:55:25;;;;;;;0.90;0.90;;;13.20;99.90;;;;;;5070604;28;20317;-76
2022/01/04 08:57:54;;;;;;;3.37;0.90;;;13.10;99.90;;;;;;5052580;28;20565;-78
2022/01/04 09:00:20;;;;;;;0.60;0.50;;;13.10;99.90;;;;;;5036060;28;20211;-78
2022/01/04 09:02:46;;;;;;;1.00;0.70;;;13.10;99.90;;;;;;5070453;28;20193;-78
2022/01/04 09:05:14;;;;;;;1.10;0.70;;;13.30;99.90;;;;;;5069998;28;20550;-75
2022/01/04 09:07:41;;;;;;;1.10;0.60;;;13.30;99.90;;;;;;5068116;28;20208;-76
2022/01/04 09:10:07;;;;;;;0.83;0.77;;;13.30;99.90;;;;;;5051858;28;20226;-75
2022/01/04 09:12:43;;;;;;;0.57;0.50;;;13.30;99.90;;;;;;5068913;28;20200;-78
2022/01/04 09:20:39;;;;;;;1.00;0.73;;;13.40;99.90;;;;;;5069179;28;20204;-80
2022/01/04 09:23:05;;;;;;;1.00;0.70;;;13.40;99.90;;;;;;5065071;28;20205;-75
2022/01/04 09:25:31;;;;;;;0.83;0.60;;;13.20;99.90;;;;;;5076787;28;20209;-80
2022/01/04 09:27:57;;;;;;;0.67;0.60;;;13.20;99.90;;;;;;5069618;28;20204;-76
2022/01/04 09:30:23;;;;;;;1.77;0.60;;;13.20;99.90;;;;;;5061840;28;20269;-76
2022/01/04 09:32:49;;;;;;;0.80;0.57;;;13.30;99.90;;;;;;5069844;28;20208;-75
2022/01/04 09:35:15;;;;;;;0.80;0.60;;;13.30;99.90;;;;;;5057530;28;20564;-75
2022/01/04 09:37:42;;;;;;;0.80;0.70;;;13.20;99.90;;;;;;5049435;28;20204;-76
2022/01/04 09:40:09;;;;;;;1.57;0.60;;;13.30;99.90;;;;;;5067347;28;20212;-77
2022/01/04 09:42:37;;;;;;;1.37;0.60;;;13.20;99.90;;;;;;5069853;28;20231;-78
2022/01/04 09:45:05;;;;;;;0.57;0.53;;;13.10;99.90;;;;;;5067646;28;20204;-79
2022/01/04 09:47:31;;;;;;;1.57;0.90;;;13.10;99.90;;;;;;5051674;28;20184;-80
2022/01/04 09:49:58;;;;;;;3.20;1.70;;;13.20;99.90;;;;;;5068163;28;20216;-75
2022/01/04 09:52:24;;;;;;;2.20;0.90;;;13.30;99.90;;;;;;5070106;28;20204;-75
2022/01/04 09:54:53;;;;;;;3.20;1.80;;;13.20;99.90;;;;;;5066972;28;20204;-76
2022/01/04 09:57:20;;;;;;;1.57;0.90;;;13.30;99.90;;;;;;5069261;28;20208;-76
2022/01/04 09:59:47;;;;;;;0.80;0.60;;;13.20;99.90;;;;;;5058975;28;20206;-75
2022/01/04 10:02:20;;;;;;;5.67;3.53;;;13.20;99.90;;;;;;5069224;28;20469;-78
2022/01/04 10:04:47;;;;;;;6.97;3.97;;;13.20;99.90;;;;;;5067676;28;20283;-76
2022/01/04 10:07:13;;;;;;;1.20;1.10;;;13.20;99.90;;;;;;5058833;28;20220;-80
2022/01/04 10:09:44;;;;;;;1.00;0.60;;;13.20;99.90;;;;;;5060963;28;20205;-76
2022/01/04 10:12:12;;;;;;;1.20;0.90;;;13.30;99.90;;;;;;5069642;28;20244;-76
2022/01/04 10:14:41;;;;;;;1.33;0.70;;;13.40;99.90;;;;;;5067533;28;20553;-80
2022/01/04 10:17:13;;;;;;;2.33;0.80;;;13.40;99.90;;;;;;5084222;28;20205;-77
2022/01/04 10:19:45;;;;;;;2.00;0.70;;;13.40;99.90;;;;;;5070982;28;20235;-75
2022/01/04 10:22:30;;;;;;;1.63;0.63;;;13.40;99.90;;;;;;5052031;28;20209;-77
2022/01/04 10:25:02;;;;;;;2.17;0.77;;;13.30;99.90;;;;;;5057179;28;20214;-80
2022/01/04 10:27:40;;;;;;;2.07;1.40;;;13.40;99.90;;;;;;5054882;28;20204;-76
2022/01/04 10:30:12;;;;;;;3.27;2.10;;;13.40;99.90;;;;;;5054613;28;20208;-77
2022/01/04 10:32:50;;;;;;;1.30;0.70;;;13.30;99.90;;;;;;5071980;28;20227;-76
2022/01/04 10:35:21;;;;;;;0.87;0.60;;;13.40;99.90;;;;;;5054619;28;20591;-79
2022/01/04 10:37:47;;;;;;;0.90;0.70;;;13.50;99.90;;;;;;5088268;28;20720;-77
2022/01/04 10:40:13;;;;;;;0.87;0.70;;;13.40;99.90;;;;;;5088386;28;20213;-76
2022/01/04 10:42:39;;;;;;;3.40;0.83;;;13.50;99.90;;;;;;5062094;28;20220;-79
2022/01/04 10:45:31;;;;;;;1.70;0.80;;;13.60;99.90;;;;;;5069471;28;20208;-81
2022/01/04 10:48:15;;;;;;;0.83;0.60;;;13.70;99.90;;;;;;5054855;28;20235;-79
2022/01/04 10:50:43;;;;;;;6.90;3.77;;;13.60;99.90;;;;;;5070939;28;20257;-80
2022/01/04 10:53:25;;;;;;;2.23;1.30;;;13.70;99.90;;;;;;5054572;28;20709;-77
2022/01/04 10:56:00;;;;;;;0.73;0.70;;;13.60;99.90;;;;;;5054619;28;20211;-79
2022/01/04 10:58:34;;;;;;;2.20;0.57;;;13.70;99.90;;;;;;5073150;28;20265;-79
2022/01/04 11:01:12;;;;;;;1.83;0.77;;;13.80;99.90;;;;;;5072428;28;20219;-78
2022/01/04 11:03:54;;;;;;;1.60;0.90;;;13.70;99.90;;;;;;5072632;28;20670;-80
2022/01/04 11:06:27;;;;;;;1.70;1.07;;;13.70;99.90;;;;;;5060089;28;20647;-77
2022/01/04 11:08:53;;;;;;;1.10;0.70;;;13.70;99.90;;;;;;5070979;28;20543;-78
2022/01/04 11:11:19;;;;;;;1.30;0.80;;;13.60;99.90;;;;;;5050966;28;20224;-77
2022/01/04 11:13:48;;;;;;;1.67;0.87;;;13.70;99.90;;;;;;5067434;28;20197;-76
2022/01/04 11:16:14;;;;;;;1.00;0.77;;;13.70;99.90;;;;;;5088821;28;20218;-81
2022/01/04 11:18:41;;;;;;;2.77;0.90;;;13.60;99.90;;;;;;5073446;28;20200;-76
2022/01/04 11:21:20;;;;;;;3.03;1.63;;;13.60;99.90;;;;;;5087767;28;20204;-76
2022/01/04 11:23:51;;;;;;;2.00;1.10;;;13.70;99.90;;;;;;5073946;28;20565;-77
2022/01/04 11:26:19;;;;;;;1.77;1.03;;;13.80;99.90;;;;;;5072443;28;20224;-80
2022/01/04 11:28:48;;;;;;;2.17;0.90;;;13.70;99.90;;;;;;5073225;28;20276;-80
2022/01/04 11:31:33;;;;;;;2.57;1.50;;;13.60;99.90;;;;;;5087565;28;20216;-80
2022/01/04 11:34:05;;;;;;;1.67;1.07;;;13.70;99.90;;;;;;5071277;28;20337;-79
2022/01/04 11:36:36;;;;;;;3.20;1.20;;;13.70;99.90;;;;;;5071885;28;20208;-76
2022/01/04 11:39:22;;;;;;;2.90;1.10;;;13.70;99.90;;;;;;5070325;28;20345;-76
2022/01/04 11:41:48;;;;;;;3.47;1.27;;;13.70;99.90;;;;;;5071347;28;20245;-80
2022/01/04 11:44:19;;;;;;;2.43;0.90;;;13.70;99.90;;;;;;5070277;28;20208;-80
2022/01/04 11:47:00;;;;;;;2.50;1.67;;;13.60;99.90;;;;;;5061851;28;20189;-79
2022/01/04 11:49:26;;;;;;;2.07;1.03;;;13.40;99.90;;;;;;5049176;28;20210;-75
2022/01/04 11:51:52;;;;;;;1.40;0.90;;;13.40;99.90;;;;;;5068785;28;20239;-75
2022/01/04 11:54:24;;;;;;;2.20;1.60;;;13.40;99.90;;;;;;5069752;28;20232;-75
2022/01/04 11:56:53;;;;;;;4.20;3.10;;;13.40;99.90;;;;;;5060650;28;20204;-80
2022/01/04 11:59:22;;;;;;;1.53;1.00;;;13.40;99.90;;;;;;5067558;28;20235;-78
2022/01/04 12:01:48;;;;;;;2.60;1.13;;;13.40;99.90;;;;;;5082503;28;20200;-74
2022/01/04 12:04:52;;;;;;;1.27;0.80;;;13.50;99.90;;;;;;5084318;28;20212;-79
2022/01/04 12:07:44;;;;;;;1.30;0.90;;;13.50;99.90;;;;;;5065926;28;20200;-75
2022/01/04 12:10:22;;;;;;;2.67;1.67;;;13.40;99.90;;;;;;5067858;28;20216;-79
2022/01/04 12:12:55;;;;;;;2.90;1.97;;;13.40;99.90;;;;;;5070384;28;21390;-76
2022/01/04 12:15:33;;;;;;;3.87;1.47;;;13.40;99.90;;;;;;5050971;28;20216;-79
2022/01/04 12:18:09;;;;;;;3.87;2.50;;;13.50;99.90;;;;;;5070388;28;20195;-76
2022/01/04 12:20:41;;;;;;;3.17;2.10;;;13.40;99.90;;;;;;5070601;28;20200;-81
2022/01/04 12:23:25;;;;;;;1.87;1.20;;;13.50;99.90;;;;;;5071563;28;20200;-81
2022/01/04 12:26:08;;;;;;;1.73;1.00;;;13.40;99.90;;;;;;5066751;28;20231;-76
2022/01/04 12:29:02;;;;;;;1.80;0.90;;;13.40;99.90;;;;;;5061650;28;20196;-81
2022/01/04 12:31:33;;;;;;;3.33;1.30;;;13.40;99.90;;;;;;5061880;28;20224;-77
2022/01/04 12:34:05;;;;;;;2.17;1.20;;;13.40;99.90;;;;;;5083237;28;20241;-81
2022/01/04 12:36:37;;;;;;;1.88;1.10;;;13.40;99.90;;;;;;5056839;28;20208;-76
2022/01/04 12:39:15;;;;;;;2.47;1.13;;;13.30;99.90;;;;;;5086116;28;20207;-77
2022/01/04 12:41:42;;;;;;;2.10;1.00;;;13.40;99.90;;;;;;5069436;28;20242;-75
2022/01/04 12:44:10;;;;;;;2.13;1.30;;;13.50;99.90;;;;;;5071315;28;20231;-79
2022/01/04 12:46:46;;;;;;;1.07;0.87;;;13.40;99.90;;;;;;5069485;28;20208;-75
2022/01/04 12:49:17;;;;;;;3.10;1.97;;;13.40;99.90;;;;;;5053162;28;20223;-76
2022/01/04 12:51:47;;;;;;;3.57;2.47;;;13.30;99.90;;;;;;5061048;28;20246;-76
2022/01/04 12:54:18;;;;;;;1.50;1.00;;;13.20;99.90;;;;;;5070339;28;20765;-77
2022/01/04 12:56:46;;;;;;;1.07;0.90;;;13.30;99.90;;;;;;5075862;28;20754;-76
2022/01/04 12:59:27;;;;;;;5.87;3.23;;;13.40;99.90;;;;;;5071467;28;20208;-76
2022/01/04 13:02:02;;;;;;;4.60;2.13;;;13.30;99.90;;;;;;5069964;28;20200;-75
2022/01/04 13:04:34;;;;;;;1.70;1.10;;;13.30;99.90;;;;;;5070952;28;20204;-82
2022/01/04 13:07:02;;;;;;;3.20;1.10;;;13.20;99.90;;;;;;5070691;28;20667;-80